WZZ1213 LRCL-LROP
Flight info
| Callsign | WZZ1213 |
|---|---|
| Flight time | N/A |
| Altitude | 15000 |
| Route | IRLOX DCT BIVBU DCT TOSVI |
| Aircraft | A20N/M-SDE2E3FGHIRWXY/LB1 |
Departure
| Time | 2026-04-22 15:09 |
|---|---|
| Airport | Avram Iancu Cluj International Airport (LRCL) |
Arrival
| Time | N/A |
|---|---|
| Airport | Bucharest Henri Coandă International Airport (LROP) |
| Time | Latitude | Longitude | Altitude | Speed | Heading |
|---|---|---|---|---|---|
| 2026-04-22 14:59 | 46.78577 | 23.69403 | 1026 ft | 0 kts | 193° |
| 2026-04-22 15:01 | 46.78589 | 23.69407 | 1026 ft | 3 kts | 193° |
| 2026-04-22 15:02 | 46.78607 | 23.69413 | 1029 ft | 3 kts | 193° |
| 2026-04-22 15:02 | 46.78625 | 23.69418 | 1027 ft | 3 kts | 202° |
| 2026-04-22 15:02 | 46.78637 | 23.69437 | 1028 ft | 3 kts | 232° |
| 2026-04-22 15:02 | 46.78652 | 23.69448 | 1028 ft | 3 kts | 155° |
| 2026-04-22 15:03 | 46.78653 | 23.69447 | 1028 ft | 0 kts | 148° |
| 2026-04-22 15:04 | 46.78653 | 23.69448 | 1028 ft | 1 kts | 148° |
| 2026-04-22 15:04 | 46.78641 | 23.69468 | 1025 ft | 5 kts | 119° |
| 2026-04-22 15:04 | 46.78641 | 23.69532 | 1027 ft | 8 kts | 83° |
| 2026-04-22 15:05 | 46.78649 | 23.69626 | 1027 ft | 11 kts | 83° |
| 2026-04-22 15:05 | 46.78661 | 23.69742 | 1027 ft | 13 kts | 79° |
| 2026-04-22 15:05 | 46.78686 | 23.69856 | 1026 ft | 12 kts | 65° |
| 2026-04-22 15:05 | 46.78730 | 23.69949 | 1026 ft | 9 kts | 26° |
| 2026-04-22 15:06 | 46.78776 | 23.69951 | 1026 ft | 5 kts | 351° |
| 2026-04-22 15:06 | 46.78798 | 23.69944 | 1025 ft | 2 kts | 344° |
| 2026-04-22 15:06 | 46.78823 | 23.69933 | 1025 ft | 7 kts | 343° |
| 2026-04-22 15:06 | 46.78890 | 23.69894 | 1023 ft | 14 kts | 333° |
| 2026-04-22 15:07 | 46.78973 | 23.69802 | 1026 ft | 14 kts | 295° |
| 2026-04-22 15:07 | 46.78991 | 23.69698 | 1025 ft | 7 kts | 284° |
| 2026-04-22 15:07 | 46.78997 | 23.69657 | 1028 ft | 2 kts | 281° |
| 2026-04-22 15:07 | 46.79003 | 23.69598 | 1026 ft | 12 kts | 274° |
| 2026-04-22 15:08 | 46.78990 | 23.69490 | 1030 ft | 22 kts | 251° |
| 2026-04-22 15:08 | 46.78873 | 23.68961 | 1028 ft | 87 kts | 252° |
| 2026-04-22 15:08 | 46.78618 | 23.67805 | 1041 ft | 149 kts | 256° |
| 2026-04-22 15:08 | 46.78261 | 23.66302 | 1456 ft | 161 kts | 256° |
| 2026-04-22 15:09 | 46.77907 | 23.64711 | 2024 ft | 173 kts | 256° |
| 2026-04-22 15:09 | 46.77512 | 23.63003 | 2593 ft | 181 kts | 253° |
| 2026-04-22 15:09 | 46.77066 | 23.61245 | 3238 ft | 188 kts | 253° |
| 2026-04-22 15:09 | 46.76576 | 23.59407 | 3781 ft | 203 kts | 253° |
| 2026-04-22 15:10 | 46.76049 | 23.57417 | 4376 ft | 216 kts | 254° |
| 2026-04-22 15:10 | 46.75539 | 23.55288 | 4986 ft | 230 kts | 257° |
| 2026-04-22 15:10 | 46.75088 | 23.52925 | 5382 ft | 252 kts | 258° |
| 2026-04-22 15:10 | 46.74592 | 23.50402 | 5910 ft | 265 kts | 257° |
| 2026-04-22 15:11 | 46.74095 | 23.47793 | 6697 ft | 268 kts | 263° |
| 2026-04-22 15:11 | 46.74076 | 23.45110 | 7523 ft | 264 kts | 285° |
| 2026-04-22 15:11 | 46.74826 | 23.42698 | 8332 ft | 263 kts | 311° |
| 2026-04-22 15:11 | 46.76239 | 23.41031 | 9172 ft | 264 kts | 335° |
| 2026-04-22 15:12 | 46.77952 | 23.40078 | 10088 ft | 265 kts | 346° |
| 2026-04-22 15:12 | 46.79775 | 23.39796 | 10862 ft | 268 kts | 5° |
| 2026-04-22 15:12 | 46.81606 | 23.40540 | 11637 ft | 275 kts | 27° |
| 2026-04-22 15:12 | 46.83115 | 23.42322 | 12107 ft | 296 kts | 49° |
| 2026-04-22 15:13 | 46.84108 | 23.45096 | 12478 ft | 321 kts | 66° |
| 2026-04-22 15:13 | 46.84844 | 23.48289 | 12845 ft | 342 kts | 70° |
| 2026-04-22 15:13 | 46.85575 | 23.51699 | 13216 ft | 361 kts | 70° |
| 2026-04-22 15:13 | 46.86351 | 23.55274 | 13637 ft | 377 kts | 70° |
| 2026-04-22 15:14 | 46.87157 | 23.59010 | 13976 ft | 394 kts | 72° |
| 2026-04-22 15:14 | 46.87639 | 23.63035 | 14344 ft | 411 kts | 85° |
| 2026-04-22 15:14 | 46.87346 | 23.67233 | 14981 ft | 420 kts | 102° |
| 2026-04-22 15:14 | 46.86205 | 23.71197 | 15495 ft | 428 kts | 120° |
| 2026-04-22 15:15 | 46.84285 | 23.74535 | 15632 ft | 432 kts | 136° |
| 2026-04-22 15:15 | 46.81982 | 23.77366 | 15446 ft | 434 kts | 143° |